Time;durP1;ratioP1;P1;durP2;ratioP2;P2;SDS_P1;SDS_P2;PMS_P1;PMS_P2;Temp;Humidity;BMP_temperature;BMP_pressure;BME280_temperature;BME280_humidity;BME280_pressure;Samples;Min_cycle;Max_cycle;Signal;HPM_P1;HPM_P2
2024/01/19 00:01:15;;;;;;;6.70;1.55;;;;;;;;;;5084833;28;20036;-70
2024/01/19 00:03:41;;;;;;;6.57;1.30;;;;;;;;;;5060742;28;20140;-70
2024/01/19 00:06:07;;;;;;;7.00;1.77;;;;;;;;;;5062441;28;20036;-70
2024/01/19 00:08:33;;;;;;;3.03;1.33;;;;;;;;;;5057529;28;20048;-70
2024/01/19 00:11:00;;;;;;;3.40;1.60;;;;;;;;;;5063473;28;20032;-70
2024/01/19 00:13:26;;;;;;;5.72;1.40;;;;;;;;;;5073879;28;20071;-71
2024/01/19 00:15:52;;;;;;;3.22;1.23;;;;;;;;;;5060420;28;20484;-71
2024/01/19 00:18:18;;;;;;;2.67;1.27;;;;;;;;;;5059517;28;20047;-71
2024/01/19 00:20:45;;;;;;;7.10;1.40;;;;;;;;;;5068694;28;20127;-71
2024/01/19 00:23:11;;;;;;;6.57;1.60;;;;;;;;;;5066497;28;20060;-71
2024/01/19 00:25:38;;;;;;;5.70;1.40;;;;;;;;;;5073388;28;20040;-71
2024/01/19 00:28:05;;;;;;;5.55;1.98;;;;;;;;;;5064607;28;20043;-71
2024/01/19 00:30:31;;;;;;;2.97;1.30;;;;;;;;;;5086907;28;20039;-71
2024/01/19 00:32:57;;;;;;;2.97;1.42;;;;;;;;;;5073480;28;20126;-71
2024/01/19 00:35:23;;;;;;;1.20;1.10;;;;;;;;;;5082977;28;20033;-71
2024/01/19 00:37:49;;;;;;;6.55;1.42;;;;;;;;;;5084137;28;20052;-71
2024/01/19 00:40:15;;;;;;;5.20;1.60;;;;;;;;;;5062808;28;20120;-71
2024/01/19 00:42:42;;;;;;;7.72;1.80;;;1.60;99.90;;;;;;5058152;28;20113;-71
2024/01/19 00:45:09;;;;;;;7.55;2.88;;;;;;;;;;5068140;28;20495;-71
2024/01/19 00:47:35;;;;;;;2.78;1.40;;;;;;;;;;5081129;28;20184;-71
2024/01/19 00:50:02;;;;;;;6.97;1.85;;;;;;;;;;5078501;28;20051;-71
2024/01/19 00:52:28;;;;;;;8.50;1.95;;;;;;;;;;5076376;28;20370;-71
2024/01/19 00:54:54;;;;;;;4.53;1.85;;;;;;;;;;5073063;28;20040;-71
2024/01/19 00:57:20;;;;;;;3.80;1.25;;;;;;;;;;5057477;28;20484;-71
2024/01/19 00:59:48;;;;;;;6.35;1.70;;;;;;;;;;5062439;28;20475;-71
2024/01/19 01:02:14;;;;;;;8.57;1.73;;;;;;;;;;5072506;28;20101;-71
2024/01/19 01:04:40;;;;;;;8.68;2.25;;;;;;;;;;5074411;28;20040;-70
2024/01/19 01:07:08;;;;;;;5.93;1.77;;;;;;;;;;5082974;28;20040;-70
2024/01/19 01:09:34;;;;;;;9.57;1.58;;;;;;;;;;5076520;28;20040;-70
2024/01/19 01:12:01;;;;;;;11.90;2.20;;;;;;;;;;5061608;28;20517;-70
2024/01/19 01:14:28;;;;;;;10.63;2.08;;;;;;;;;;5088477;28;20088;-70
2024/01/19 01:16:54;;;;;;;20.10;2.45;;;;;;;;;;5083233;28;20059;-70
2024/01/19 01:19:20;;;;;;;13.43;2.55;;;;;;;;;;5059220;28;20036;-70
2024/01/19 01:21:46;;;;;;;12.80;2.60;;;;;;;;;;5076023;28;20046;-70
2024/01/19 01:24:12;;;;;;;12.30;2.35;;;;;;;;;;5065603;28;20043;-70
2024/01/19 01:26:38;;;;;;;7.90;1.83;;;;;;;;;;5061438;28;20032;-70
2024/01/19 01:29:04;;;;;;;9.95;2.72;;;;;;;;;;5081112;28;20039;-70
2024/01/19 01:31:30;;;;;;;8.27;1.85;;;;;;;;;;5089134;28;20098;-70
2024/01/19 01:33:56;;;;;;;6.38;1.90;;;;;;;;;;5065621;28;20479;-71
2024/01/19 01:36:22;;;;;;;10.70;2.40;;;;;;;;;;5090590;28;20711;-70
2024/01/19 01:38:48;;;;;;;10.85;1.92;;;;;;;;;;5086240;28;20119;-70
2024/01/19 01:41:15;;;;;;;5.28;1.90;;;;;;;;;;5086050;28;20395;-70
2024/01/19 01:43:41;;;;;;;9.30;2.47;;;;;;;;;;5057976;28;20072;-71
2024/01/19 01:46:07;;;;;;;8.57;2.53;;;;;;;;;;5090595;28;20040;-71
2024/01/19 01:48:33;;;;;;;8.35;1.67;;;;;;;;;;5062956;28;20075;-70
2024/01/19 01:51:00;;;;;;;13.20;2.25;;;;;;;;;;5058166;28;20066;-70
2024/01/19 01:53:26;;;;;;;9.77;2.20;;;;;;;;;;5062873;28;20127;-71
2024/01/19 01:55:52;;;;;;;10.35;2.58;;;;;;;;;;5086992;28;20040;-71
2024/01/19 01:58:19;;;;;;;13.52;1.95;;;;;;;;;;5087954;28;20043;-71
2024/01/19 02:00:45;;;;;;;15.48;1.98;;;;;;;;;;5069279;28;20040;-71
2024/01/19 02:03:11;;;;;;;11.57;1.88;;;;;;;;;;5086744;28;20047;-71
2024/01/19 02:05:38;;;;;;;12.60;1.70;;;;;;;;;;5063061;28;20029;-72
2024/01/19 02:08:04;;;;;;;2.47;1.60;;;;;;;;;;5057117;28;20036;-70
2024/01/19 02:10:30;;;;;;;2.55;1.65;;;;;;;;;;5087064;28;20074;-71
2024/01/19 02:12:57;;;;;;;4.93;1.33;;;;;;;;;;5080954;28;20063;-71
2024/01/19 02:15:24;;;;;;;6.60;1.88;;;;;;;;;;5105653;28;20048;-71
2024/01/19 02:17:50;;;;;;;3.45;1.33;;;;;;;;;;5093700;28;20048;-71
2024/01/19 02:20:17;;;;;;;7.22;1.90;;;;;;;;;;5104452;28;20021;-72
2024/01/19 02:22:44;;;;;;;14.70;3.03;;;;;;;;;;5091791;28;20042;-72
2024/01/19 02:25:10;;;;;;;5.78;1.58;;;;;;;;;;5091443;28;20044;-71
2024/01/19 02:27:36;;;;;;;7.80;1.92;;;;;;;;;;5071736;28;20049;-71
2024/01/19 02:30:02;;;;;;;10.43;1.95;;;;;;;;;;5086292;28;20067;-72
2024/01/19 02:32:28;;;;;;;9.18;1.48;;;;;;;;;;5096607;28;20060;-72
2024/01/19 02:34:54;;;;;;;11.70;1.70;;;;;;;;;;5075328;28;20420;-72
2024/01/19 02:37:20;;;;;;;8.98;1.80;;;;;;;;;;5067500;28;20062;-73
2024/01/19 02:39:47;;;;;;;9.23;1.60;;;;;;;;;;5092126;28;20040;-72
2024/01/19 02:42:13;;;;;;;8.68;1.70;;;;;;;;;;5067349;28;20047;-72
2024/01/19 02:44:39;;;;;;;4.45;1.60;;;;;;;;;;5067209;28;20119;-72
2024/01/19 02:47:05;;;;;;;13.75;2.10;;;;;;;;;;5054863;28;20036;-70
2024/01/19 02:49:31;;;;;;;7.00;1.42;;;;;;;;;;5076875;28;20036;-70
2024/01/19 02:51:57;;;;;;;6.43;1.50;;;;;;;;;;5073574;28;20037;-70
2024/01/19 02:54:26;;;;;;;7.45;1.52;;;;;;;;;;5092069;28;20043;-70
2024/01/19 02:56:52;;;;;;;7.60;1.50;;;;;;;;;;5074506;28;20169;-70
2024/01/19 02:59:18;;;;;;;5.97;1.63;;;;;;;;;;5077870;28;20040;-70
2024/01/19 03:01:44;;;;;;;6.90;1.45;;;;;;;;;;5076365;28;20036;-71
2024/01/19 03:04:10;;;;;;;4.43;1.33;;;;;;;;;;5065730;28;20056;-71
2024/01/19 03:06:36;;;;;;;6.55;1.70;;;;;;;;;;5103329;28;20032;-71
2024/01/19 03:09:03;;;;;;;7.03;1.52;;;;;;;;;;5088574;28;20028;-70
2024/01/19 03:11:29;;;;;;;4.68;1.60;;;;;;;;;;5081695;28;20045;-71
2024/01/19 03:13:55;;;;;;;5.00;1.23;;;;;;;;;;5082844;28;20519;-71
2024/01/19 03:16:22;;;;;;;12.70;1.73;;;;;;;;;;5084163;28;20045;-71
2024/01/19 03:18:48;;;;;;;6.95;1.73;;;;;;;;;;5058366;28;20044;-71
2024/01/19 03:21:14;;;;;;;3.60;1.42;;;;;;;;;;5086521;28;20040;-71
2024/01/19 03:23:40;;;;;;;9.75;1.42;;;;;;;;;;5087965;28;20481;-71
2024/01/19 03:26:06;;;;;;;8.93;1.63;;;;;;;;;;5080307;28;20040;-71
2024/01/19 03:28:32;;;;;;;7.63;1.60;;;;;;;;;;5080415;28;20416;-71
2024/01/19 03:30:58;;;;;;;6.40;1.70;;;;;;;;;;5078394;28;20041;-71
2024/01/19 03:33:24;;;;;;;14.02;2.13;;;;;;;;;;5062290;28;20051;-72
2024/01/19 03:35:50;;;;;;;12.82;2.28;;;;;;;;;;5075002;28;20115;-71
2024/01/19 03:38:18;;;;;;;16.17;2.65;;;;;;;;;;5070295;28;20083;-71
2024/01/19 03:40:44;;;;;;;17.42;2.83;;;;;;;;;;5086221;28;20044;-71
2024/01/19 03:43:10;;;;;;;17.33;3.03;;;;;;;;;;5091214;28;20044;-71
2024/01/19 03:45:36;;;;;;;21.70;3.20;;;;;;;;;;5070504;28;20043;-71
2024/01/19 03:48:03;;;;;;;12.07;1.77;;;;;;;;;;5074234;28;20047;-71
2024/01/19 03:50:29;;;;;;;8.20;2.20;;;;;;;;;;5060970;28;20036;-71
2024/01/19 03:52:55;;;;;;;8.20;2.40;;;;;;;;;;5088554;28;20039;-71
2024/01/19 03:55:21;;;;;;;9.30;2.30;;;;;;;;;;5086462;28;20032;-71
2024/01/19 03:57:47;;;;;;;8.40;1.90;;;;;;;;;;5091723;28;20040;-71
2024/01/19 04:00:13;;;;;;;12.77;2.15;;;;;;;;;;5082939;28;20036;-71
2024/01/19 04:02:40;;;;;;;14.80;2.67;;;;;;;;;;5079666;28;20040;-71
2024/01/19 04:05:06;;;;;;;8.43;2.00;;;;;;;;;;5075281;28;20119;-71
2024/01/19 04:07:32;;;;;;;13.13;2.15;;;;;;;;;;5063636;28;20362;-70
2024/01/19 04:09:58;;;;;;;10.07;1.52;;;;;;;;;;5078283;28;20082;-71
2024/01/19 04:12:24;;;;;;;11.98;2.17;;;;;;;;;;5077851;28;20048;-71
2024/01/19 04:14:50;;;;;;;11.85;2.10;;;;;;;;;;5074907;28;20569;-71
2024/01/19 04:17:16;;;;;;;9.93;1.98;;;;;;;;;;5086429;28;20039;-71
2024/01/19 04:19:43;;;;;;;15.82;2.25;;;;;;;;;;5090609;28;20040;-71
2024/01/19 04:22:09;;;;;;;12.38;2.08;;;;;;;;;;5078182;28;20553;-71
2024/01/19 04:24:35;;;;;;;13.15;1.80;;;;;;;;;;5064778;28;20036;-71
2024/01/19 04:27:01;;;;;;;7.35;2.15;;;;;;;;;;5050171;28;20032;-71
2024/01/19 04:29:27;;;;;;;12.15;2.00;;;;;;;;;;5089778;28;20123;-70
2024/01/19 04:31:53;;;;;;;11.45;1.70;;;;;;;;;;5075993;28;20476;-70
2024/01/19 04:34:19;;;;;;;8.80;1.60;;;;;;;;;;5080821;28;20043;-70
2024/01/19 04:36:45;;;;;;;5.93;1.48;;;;;;;;;;5091541;28;20040;-71
2024/01/19 04:39:12;;;;;;;7.65;1.70;;;;;;;;;;5079835;28;20376;-71
2024/01/19 04:41:38;;;;;;;9.15;1.45;;;;;;;;;;5081663;28;20370;-71
2024/01/19 04:44:04;;;;;;;9.05;2.53;;;;;;;;;;5073056;28;20041;-71
2024/01/19 04:46:30;;;;;;;14.07;3.08;;;;;;;;;;5057005;28;20075;-71
2024/01/19 04:48:56;;;;;;;6.57;2.13;;;;;;;;;;5066894;28;20037;-71
2024/01/19 04:51:22;;;;;;;7.07;1.63;;;;;;;;;;5082443;28;20062;-71
2024/01/19 04:53:48;;;;;;;8.63;2.08;;;;;;;;;;5083817;28;20377;-71
2024/01/19 04:56:14;;;;;;;18.15;2.60;;;;;;;;;;5089917;28;20102;-71
2024/01/19 04:58:40;;;;;;;11.50;1.67;;;;;;;;;;5065930;28;20044;-71
2024/01/19 05:01:06;;;;;;;10.77;2.35;;;;;;;;;;5074198;28;20043;-71
2024/01/19 05:03:32;;;;;;;11.90;2.05;;;;;;;;;;5084011;28;20488;-71
2024/01/19 05:05:59;;;;;;;7.68;1.77;;;;;;;;;;5090058;28;20028;-71
2024/01/19 05:08:25;;;;;;;10.50;2.03;;;;;;;;;;5085338;28;20503;-71
2024/01/19 05:10:51;;;;;;;9.25;2.13;;;;;;;;;;5066440;28;20036;-71
2024/01/19 05:13:17;;;;;;;13.48;2.00;;;;;;;;;;5084534;28;20063;-71
2024/01/19 05:15:43;;;;;;;8.80;1.77;;;;;;;;;;5077355;28;20095;-71
2024/01/19 05:18:09;;;;;;;12.48;2.42;;;;;;;;;;5075598;28;20042;-71
2024/01/19 05:20:38;;;;;;;7.63;1.77;;;;;;;;;;5057173;28;20048;-71
2024/01/19 05:23:05;;;;;;;12.75;2.03;;;;;;;;;;5056624;28;20101;-72
2024/01/19 05:25:31;;;;;;;8.13;2.13;;;;;;;;;;5060674;28;20472;-71
2024/01/19 05:27:57;;;;;;;19.33;2.30;;;;;;;;;;5074225;28;20515;-72
2024/01/19 05:30:26;;;;;;;13.13;2.17;;;;;;;;;;5088369;28;20028;-72
2024/01/19 05:32:52;;;;;;;15.05;2.80;;;;;;;;;;5076405;28;20129;-71
2024/01/19 05:35:18;;;;;;;18.40;2.35;;;;;;;;;;5077026;28;20111;-71
2024/01/19 05:37:44;;;;;;;12.88;2.22;;;;;;;;;;5055595;28;20033;-71
2024/01/19 05:40:11;;;;;;;14.73;2.38;;;;;;;;;;5071990;28;20041;-71
2024/01/19 05:42:37;;;;;;;17.92;2.60;;;;;;;;;;5079293;28;20039;-71
2024/01/19 05:45:03;;;;;;;15.13;2.92;;;;;;;;;;5044878;28;20036;-71
2024/01/19 05:47:29;;;;;;;14.00;1.90;;;;;;;;;;5057364;28;20064;-71
2024/01/19 05:49:56;;;;;;;9.45;2.40;;;;;;;;;;5079270;28;20055;-72
2024/01/19 05:52:22;;;;;;;9.95;2.50;;;;;;;;;;5075883;28;20047;-71
2024/01/19 05:54:48;;;;;;;19.80;2.65;;;;;;;;;;5067246;28;20441;-71
2024/01/19 05:57:15;;;;;;;19.95;2.47;;;;;;;;;;5089583;28;20139;-71
2024/01/19 05:59:41;;;;;;;18.50;2.10;;;;;;;;;;5084726;28;20044;-71
2024/01/19 06:02:07;;;;;;;17.05;2.83;;;;;;;;;;5085276;28;20433;-71
2024/01/19 06:04:34;;;;;;;21.23;2.75;;;;;;;;;;5093804;28;20072;-71
2024/01/19 06:07:03;;;;;;;22.95;2.58;;;;;;;;;;5111737;28;20039;-71
2024/01/19 06:09:29;;;;;;;23.85;2.67;;;;;;;;;;5109217;28;20087;-72
2024/01/19 06:11:55;;;;;;;15.23;2.65;;;;;;;;;;5091818;28;20045;-72
2024/01/19 06:14:21;;;;;;;12.10;2.25;;;;;;;;;;5071248;28;20052;-72
2024/01/19 06:16:47;;;;;;;15.98;2.72;;;;;;;;;;5074710;28;20071;-71
2024/01/19 06:19:14;;;;;;;24.83;3.33;;;;;;;;;;5077827;28;20036;-71
2024/01/19 06:21:44;;;;;;;13.27;3.35;;;;;;;;;;5081528;28;20117;-71
2024/01/19 06:24:10;;;;;;;17.25;4.07;;;;;;;;;;5090253;28;20047;-71
2024/01/19 06:26:36;;;;;;;20.17;2.60;;;;;;;;;;5092326;28;20044;-71
2024/01/19 06:29:02;;;;;;;12.75;2.55;;;;;;;;;;5086788;28;20033;-71
2024/01/19 06:31:28;;;;;;;10.35;2.38;;;;;;;;;;5073304;28;20472;-71
2024/01/19 06:33:54;;;;;;;19.95;2.55;;;;;;;;;;5069274;28;20112;-71
2024/01/19 06:36:20;;;;;;;12.88;2.40;;;;;;;;;;5068464;28;20115;-71
2024/01/19 06:38:46;;;;;;;10.40;2.50;;;;;;;;;;5084479;28;20036;-71
2024/01/19 06:41:12;;;;;;;18.40;3.55;;;;;;;;;;5079235;28;20082;-71
2024/01/19 06:43:38;;;;;;;20.63;2.70;;;;;;;;;;5064530;28;20036;-71
2024/01/19 06:46:05;;;;;;;17.92;2.33;;;1.00;99.90;;;;;;5085214;28;20043;-70
2024/01/19 06:48:31;;;;;;;13.52;2.47;;;;;;;;;;5073084;28;20050;-71
2024/01/19 06:50:57;;;;;;;13.40;3.58;;;;;;;;;;5045455;28;20089;-71
2024/01/19 06:53:23;;;;;;;15.23;2.92;;;;;;;;;;5084301;28;20032;-71
2024/01/19 06:55:49;;;;;;;18.33;3.25;;;;;;;;;;5076160;28;20073;-71
2024/01/19 06:58:15;;;;;;;19.00;4.07;;;;;;;;;;5074543;28;20465;-71
2024/01/19 07:00:43;;;;;;;17.25;3.08;;;;;;;;;;5057782;28;20037;-71
2024/01/19 07:03:09;;;;;;;24.65;3.45;;;;;;;;;;5082043;28;20396;-71
2024/01/19 07:05:35;;;;;;;23.65;3.78;;;;;;;;;;5076644;28;20036;-71
2024/01/19 07:08:01;;;;;;;19.50;2.88;;;;;;;;;;5058732;28;20086;-71
2024/01/19 07:10:28;;;;;;;17.10;3.38;;;;;;;;;;5055083;28;20115;-71
2024/01/19 07:12:54;;;;;;;8.30;2.20;;;;;;;;;;5071139;28;20071;-71
2024/01/19 07:15:20;;;;;;;15.73;3.83;;;;;;;;;;5065298;28;20559;-71
2024/01/19 07:17:46;;;;;;;19.80;3.42;;;;;;;;;;5076085;28;20044;-71
2024/01/19 07:20:12;;;;;;;18.95;3.85;;;;;;;;;;5063872;28;20468;-71
2024/01/19 07:22:38;;;;;;;11.98;2.30;;;;;;;;;;5062795;28;20044;-70
2024/01/19 07:25:05;;;;;;;16.02;2.65;;;;;;;;;;5069743;28;20076;-71
2024/01/19 07:27:31;;;;;;;16.23;2.92;;;;;;;;;;5068489;28;20042;-71
2024/01/19 07:29:57;;;;;;;10.27;2.38;;;;;;;;;;5083334;28;20043;-71
2024/01/19 07:32:25;;;;;;;19.77;2.95;;;;;;;;;;5074860;28;20061;-71
2024/01/19 07:34:51;;;;;;;11.25;2.63;;;;;;;;;;5056312;28;20094;-70
2024/01/19 07:37:17;;;;;;;23.98;3.22;;;;;;;;;;5076303;28;20044;-70
2024/01/19 07:39:43;;;;;;;23.88;3.95;;;;;;;;;;5080955;28;20089;-70
2024/01/19 07:42:09;;;;;;;22.50;2.90;;;;;;;;;;5088801;28;20051;-71
2024/01/19 07:44:35;;;;;;;19.10;3.65;;;;;;;;;;5082470;28;20036;-71
2024/01/19 07:47:01;;;;;;;17.25;3.03;;;;;;;;;;5091642;28;20032;-70
2024/01/19 07:49:27;;;;;;;16.02;3.25;;;;;;;;;;5088871;28;20050;-71
2024/01/19 07:51:53;;;;;;;19.33;3.15;;;;;;;;;;5087559;28;20040;-71
2024/01/19 07:54:20;;;;;;;14.90;2.65;;;;;;;;;;5050026;28;20044;-71
2024/01/19 07:56:47;;;;;;;19.65;3.40;;;;;;;;;;5070400;28;20036;-70
2024/01/19 07:59:13;;;;;;;15.02;3.42;;;;;;;;;;5068070;28;20079;-71
2024/01/19 08:01:39;;;;;;;21.77;3.35;;;;;;;;;;5079954;28;20036;-71
2024/01/19 08:04:05;;;;;;;22.60;3.60;;;;;;;;;;5077788;28;20040;-70
2024/01/19 08:06:31;;;;;;;17.25;3.75;;;;;;;;;;5057546;28;20046;-71
2024/01/19 08:08:57;;;;;;;16.05;4.00;;;;;;;;;;5084327;28;20491;-72
2024/01/19 08:11:23;;;;;;;21.52;4.15;;;;;;;;;;5083133;28;20414;-71
2024/01/19 08:13:51;;;;;;;20.00;3.00;;;;;;;;;;5088287;28;20056;-71
2024/01/19 08:16:17;;;;;;;15.35;3.83;;;;;;;;;;5074214;28;20051;-71
2024/01/19 08:18:43;;;;;;;19.30;3.45;;;;;;;;;;5082052;28;20554;-71
2024/01/19 08:21:09;;;;;;;20.02;4.03;;;;;;;;;;5066589;28;20044;-71
2024/01/19 08:23:35;;;;;;;21.60;4.00;;;;;;;;;;5073563;28;20195;-71
2024/01/19 08:26:01;;;;;;;15.75;3.20;;;;;;;;;;5078308;28;20033;-71
2024/01/19 08:28:27;;;;;;;15.55;3.33;;;;;;;;;;5082202;28;20119;-72
2024/01/19 08:30:53;;;;;;;16.73;2.80;;;;;;;;;;5073552;28;20041;-71
2024/01/19 08:33:19;;;;;;;22.15;3.00;;;;;;;;;;5073173;28;20086;-71
2024/01/19 08:35:46;;;;;;;15.43;2.78;;;;;;;;;;5073215;28;20044;-71
2024/01/19 08:38:13;;;;;;;15.45;3.38;;;;;;;;;;5073100;28;20127;-72
2024/01/19 08:40:39;;;;;;;17.65;3.38;;;;;;;;;;5073301;28;20056;-71
2024/01/19 08:43:05;;;;;;;15.25;3.03;;;;;;;;;;5073542;28;20043;-71
2024/01/19 08:45:31;;;;;;;10.77;3.28;;;;;;;;;;5062350;28;20491;-71
2024/01/19 08:47:58;;;;;;;16.33;2.35;;;;;;;;;;5056184;28;20492;-71
2024/01/19 08:50:24;;;;;;;12.50;3.20;;;;;;;;;;5072014;28;20528;-72
2024/01/19 08:52:51;;;;;;;17.73;4.25;;;;;;;;;;5073478;28;20040;-72
2024/01/19 08:55:17;;;;;;;16.15;2.95;;;;;;;;;;5073578;28;20437;-72
2024/01/19 08:57:43;;;;;;;27.77;3.22;;;;;;;;;;5073307;28;20076;-72
2024/01/19 09:00:10;;;;;;;12.63;2.40;;;;;;;;;;5068457;28;20027;-71
2024/01/19 09:02:36;;;;;;;23.33;3.55;;;;;;;;;;5094719;28;20119;-71
2024/01/19 09:05:02;;;;;;;19.45;3.05;;;;;;;;;;5087149;28;20040;-71
2024/01/19 09:07:28;;;;;;;24.77;3.15;;;;;;;;;;5057552;28;20048;-71
2024/01/19 09:09:54;;;;;;;16.15;3.28;;;;;;;;;;5080814;28;20040;-71
2024/01/19 09:12:21;;;;;;;14.05;2.97;;;;;;;;;;5067357;28;20469;-71
2024/01/19 09:14:47;;;;;;;20.20;3.20;;;;;;;;;;5061791;28;20039;-72
2024/01/19 09:17:13;;;;;;;18.83;2.72;;;;;;;;;;5083541;28;20113;-72
2024/01/19 09:19:39;;;;;;;19.92;2.83;;;;;;;;;;5086504;28;20042;-72
2024/01/19 09:22:05;;;;;;;15.70;2.45;;;;;;;;;;5051482;28;20037;-72
2024/01/19 09:24:31;;;;;;;10.13;2.20;;;;;;;;;;5077967;28;20086;-72
2024/01/19 09:26:57;;;;;;;21.27;3.10;;;;;;;;;;5070345;28;20408;-72
2024/01/19 09:29:24;;;;;;;17.38;2.90;;;;;;;;;;5074112;28;20048;-72
2024/01/19 09:31:50;;;;;;;21.38;3.42;;;;;;;;;;5072720;28;20570;-72
2024/01/19 09:34:16;;;;;;;29.90;4.10;;;;;;;;;;5056403;28;20133;-72
2024/01/19 09:36:42;;;;;;;19.65;3.30;;;;;;;;;;5056049;28;20503;-72
2024/01/19 09:39:08;;;;;;;17.00;3.65;;;;;;;;;;5074209;28;20043;-72
2024/01/19 09:41:37;;;;;;;17.38;3.65;;;;;;;;;;5071221;28;20047;-72
2024/01/19 09:44:07;;;;;;;20.38;4.68;;;2.10;99.90;;;;;;5087065;28;20039;-71
2024/01/19 09:46:38;;;;;;;19.88;4.30;;;;;;;;;;5077036;28;20115;-71
2024/01/19 09:49:11;;;;;;;17.45;2.88;;;;;;;;;;5104958;28;20058;-71
2024/01/19 09:51:55;;;;;;;14.98;2.80;;;;;;;;;;5105398;28;20104;-71
2024/01/19 09:54:34;;;;;;;8.57;2.80;;;2.40;99.90;;;;;;5089500;28;20044;-71
2024/01/19 09:57:01;;;;;;;16.55;2.90;;;;;;;;;;5095334;28;20048;-71
2024/01/19 09:59:31;;;;;;;17.48;2.65;;;2.40;99.90;;;;;;5084197;28;20044;-70
2024/01/19 10:01:58;;;;;;;18.80;2.75;;;;;;;;;;5077816;28;20040;-70
2024/01/19 10:04:24;;;;;;;15.32;3.70;;;;;;;;;;5069703;28;20033;-70
2024/01/19 10:06:54;;;;;;;21.77;2.83;;;;;;;;;;5074617;28;20368;-70
2024/01/19 10:09:20;;;;;;;15.25;2.80;;;;;;;;;;5062388;28;20138;-72
2024/01/19 10:11:47;;;;;;;18.35;3.45;;;;;;;;;;5071377;28;20125;-70
2024/01/19 10:14:13;;;;;;;20.95;3.33;;;;;;;;;;5074125;28;20048;-70
2024/01/19 10:16:39;;;;;;;17.02;3.63;;;;;;;;;;5055629;28;20040;-72
2024/01/19 10:19:08;;;;;;;14.88;3.10;;;;;;;;;;5072529;28;20045;-70
2024/01/19 10:21:34;;;;;;;12.45;2.58;;;;;;;;;;5072017;28;20044;-71
2024/01/19 10:24:08;;;;;;;19.80;3.15;;;;;;;;;;5071897;28;20051;-70
2024/01/19 10:26:36;;;;;;;13.80;2.47;;;;;;;;;;5072157;28;20083;-71
2024/01/19 10:29:11;;;;;;;18.52;2.70;;;;;;;;;;5081342;28;20048;-70
2024/01/19 10:31:38;;;;;;;18.15;3.38;;;;;;;;;;5080407;28;20476;-72
2024/01/19 10:34:04;;;;;;;13.55;2.60;;;;;;;;;;5058495;28;20124;-72
2024/01/19 10:36:40;;;;;;;17.65;3.28;;;;;;;;;;5073792;28;20063;-73
2024/01/19 10:39:18;;;;;;;25.48;3.00;;;;;;;;;;5073938;28;20051;-73
2024/01/19 10:41:44;;;;;;;19.02;3.13;;;;;;;;;;5083104;28;20036;-72
2024/01/19 10:44:11;;;;;;;18.98;3.55;;;;;;;;;;5081243;28;20055;-72
2024/01/19 10:46:37;;;;;;;17.40;3.63;;;;;;;;;;5084341;28;20461;-72
2024/01/19 10:49:04;;;;;;;16.88;3.00;;;;;;;;;;5072736;28;20451;-71
2024/01/19 10:51:32;;;;;;;22.27;3.35;;;;;;;;;;5076999;28;20392;-71
2024/01/19 10:54:05;;;;;;;17.05;4.22;;;;;;;;;;5072669;28;20421;-71
2024/01/19 10:56:31;;;;;;;;;;;;;;;;;;5083865;28;20031;-70
2024/01/19 10:59:11;;;;;;;14.05;3.15;;;;;;;;;;5074811;28;19916;-70
2024/01/19 11:01:37;;;;;;;22.20;3.13;;;;;;;;;;5081300;28;20071;-70
2024/01/19 11:04:04;;;;;;;20.38;5.10;;;;;;;;;;5084339;28;20040;-70
2024/01/19 11:06:30;;;;;;;11.10;2.33;;;;;;;;;;5079374;28;20040;-70
2024/01/19 11:08:56;;;;;;;18.38;2.97;;;;;;;;;;5083565;28;20121;-70
2024/01/19 11:11:26;;;;;;;17.00;3.10;;;;;;;;;;5083641;28;20111;-70
2024/01/19 11:13:54;;;;;;;20.73;2.60;;;;;;;;;;5074583;28;20135;-71
2024/01/19 11:16:25;;;;;;;12.80;2.35;;;4.20;99.90;;;;;;5073789;28;20168;-71
2024/01/19 11:18:52;;;;;;;20.05;2.90;;;;;;;;;;5087810;28;20039;-71
2024/01/19 11:21:19;;;;;;;16.77;3.00;;;;;;;;;;5062721;28;20033;-71
2024/01/19 11:23:46;;;;;;;17.15;2.65;;;;;;;;;;5067729;28;20078;-71
2024/01/19 11:26:27;;;;;;;24.42;3.92;;;4.40;99.90;;;;;;5082172;28;20043;-71
2024/01/19 11:29:02;;;;;;;11.25;2.50;;;;;;;;;;5086859;28;20051;-71
2024/01/19 11:31:30;;;;;;;14.25;2.63;;;;;;;;;;5060286;28;20112;-71
2024/01/19 11:33:57;;;;;;;11.80;2.65;;;;;;;;;;5091990;28;20047;-71
2024/01/19 11:36:38;;;;;;;16.27;3.20;;;;;;;;;;5078501;28;20048;-71
2024/01/19 11:39:05;;;;;;;16.70;3.35;;;;;;;;;;5080969;28;20112;-72
2024/01/19 11:41:35;;;;;;;10.65;2.40;;;;;;;;;;5082544;28;20492;-71
2024/01/19 11:44:05;;;;;;;11.32;1.90;;;5.10;99.90;;;;;;5082720;28;20043;-71
2024/01/19 11:46:41;;;;;;;15.40;2.30;;;;;;;;;;5059601;28;20041;-71
2024/01/19 11:49:07;;;;;;;20.45;2.55;;;;;;;;;;5076887;28;20516;-71
2024/01/19 11:51:34;;;;;;;21.60;3.13;;;5.10;99.90;;;;;;5077753;28;20110;-71
2024/01/19 11:54:03;;;;;;;17.15;2.60;;;5.10;99.90;;;;;;5074684;28;20042;-71
2024/01/19 11:56:29;;;;;;;20.30;2.75;;;;;;;;;;5058196;28;20105;-71
2024/01/19 11:58:55;;;;;;;14.25;2.38;;;;;;;;;;5060267;28;20074;-71
2024/01/19 12:01:22;;;;;;;19.10;2.97;;;;;;;;;;5074953;28;20055;-71
2024/01/19 12:03:55;;;;;;;12.82;2.42;;;;;;;;;;5075925;28;20510;-70
2024/01/19 12:06:22;;;;;;;18.33;2.80;;;;;;;;;;5075887;28;20048;-70
2024/01/19 12:09:04;;;;;;;21.30;2.80;;;;;;;;;;5075104;28;20032;-71
2024/01/19 12:11:30;;;;;;;15.50;2.50;;;;;;;;;;5076446;28;20037;-70
2024/01/19 12:14:00;;;;;;;20.17;2.45;;;;;;;;;;5083134;28;20121;-70
2024/01/19 12:16:26;;;;;;;17.67;3.05;;;;;;;;;;5078063;28;20485;-70
2024/01/19 12:18:56;;;;;;;11.38;2.33;;;5.30;99.90;;;;;;5057661;28;20093;-70
2024/01/19 12:21:23;;;;;;;7.70;1.80;;;;;;;;;;5087488;28;20515;-70
2024/01/19 12:23:53;;;;;;;6.80;1.90;;;;;;;;;;5066112;28;20055;-70
2024/01/19 12:26:22;;;;;;;8.18;1.88;;;;;;;;;;5061674;28;20047;-70
2024/01/19 12:28:49;;;;;;;13.00;2.20;;;;;;;;;;5074385;28;20197;-70
2024/01/19 12:31:22;;;;;;;18.92;2.58;;;;;;;;;;5073869;28;20515;-70
2024/01/19 12:33:48;;;;;;;11.05;2.28;;;;;;;;;;5058197;28;20059;-71
2024/01/19 12:36:17;;;;;;;14.82;2.28;;;;;;;;;;5088787;28;20093;-70
2024/01/19 12:38:44;;;;;;;12.48;2.05;;;;;;;;;;5094777;28;20036;-70
2024/01/19 12:41:17;;;;;;;17.50;3.70;;;;;;;;;;5092105;28;20385;-71
2024/01/19 12:43:43;;;;;;;12.18;2.47;;;5.30;99.90;;;;;;5088679;28;20106;-70
2024/01/19 12:46:10;;;;;;;17.88;2.53;;;;;;;;;;5082365;28;20043;-70
2024/01/19 12:48:36;;;;;;;12.20;2.67;;;;;;;;;;5074532;28;20045;-70
2024/01/19 12:51:06;;;;;;;9.23;2.30;;;5.50;99.90;;;;;;5075985;28;20032;-71
2024/01/19 12:53:32;;;;;;;14.77;2.00;;;;;;;;;;5089856;28;20040;-71
2024/01/19 12:56:00;;;;;;;15.30;2.05;;;;;;;;;;5088381;28;20059;-72
2024/01/19 12:58:26;;;;;;;10.30;2.05;;;;;;;;;;5087492;28;20040;-71
2024/01/19 13:00:53;;;;;;;11.27;2.35;;;;;;;;;;5081201;28;20086;-70
2024/01/19 13:03:20;;;;;;;8.93;2.13;;;;;;;;;;5063239;28;20412;-70
2024/01/19 13:05:47;;;;;;;7.00;1.88;;;;;;;;;;5080061;28;20071;-70
2024/01/19 13:08:18;;;;;;;16.45;2.58;;;;;;;;;;5077591;28;20036;-70
2024/01/19 13:10:44;;;;;;;9.95;2.85;;;;;;;;;;5059586;28;20040;-70
2024/01/19 13:13:11;;;;;;;10.95;2.20;;;;;;;;;;5056539;28;20044;-70
2024/01/19 13:15:37;;;;;;;12.82;3.15;;;;;;;;;;5072893;28;20060;-70
2024/01/19 13:18:10;;;;;;;14.23;3.15;;;;;;;;;;5072559;28;20097;-71
2024/01/19 13:20:38;;;;;;;24.83;3.72;;;;;;;;;;5080642;28;20090;-71
2024/01/19 13:23:04;;;;;;;17.65;3.22;;;;;;;;;;5092076;28;20477;-71
2024/01/19 13:25:30;;;;;;;16.85;3.00;;;;;;;;;;5087187;28;20083;-70
2024/01/19 13:27:57;;;;;;;21.88;3.10;;;;;;;;;;5081842;28;20396;-71
2024/01/19 13:30:26;;;;;;;15.27;3.67;;;;;;;;;;5072368;28;20496;-70
2024/01/19 13:32:52;;;;;;;17.20;3.85;;;;;;;;;;5072920;28;20070;-70
2024/01/19 13:35:20;;;;;;;13.10;3.83;;;;;;;;;;5078138;28;20044;-70
2024/01/19 13:37:46;;;;;;;17.10;3.85;;;;;;;;;;5057656;28;20044;-70
2024/01/19 13:40:12;;;;;;;15.43;4.00;;;;;;;;;;5073475;28;20083;-71
2024/01/19 13:42:39;;;;;;;16.42;3.55;;;;;;;;;;5072462;28;20047;-71
2024/01/19 13:45:09;;;;;;;11.70;3.67;;;6.20;99.90;;;;;;5071886;28;20040;-71
2024/01/19 13:47:36;;;;;;;17.15;3.90;;;;;;;;;;5072008;28;20048;-70
2024/01/19 13:50:03;;;;;;;14.93;3.30;;;;;;;;;;5072093;28;20091;-70
2024/01/19 13:52:29;;;;;;;17.33;3.20;;;;;;;;;;5055829;28;20040;-71
2024/01/19 13:54:55;;;;;;;15.65;3.40;;;;;;;;;;5087149;28;20036;-70
2024/01/19 13:57:21;;;;;;;20.58;3.65;;;;;;;;;;5083460;28;20055;-70
2024/01/19 13:59:47;;;;;;;17.85;3.80;;;;;;;;;;5071957;28;20508;-70
2024/01/19 14:02:15;;;;;;;15.93;3.88;;;;;;;;;;5087838;28;20036;-70
2024/01/19 14:04:41;;;;;;;15.07;3.47;;;;;;;;;;5092461;28;20400;-70
2024/01/19 14:07:08;;;;;;;14.18;3.60;;;;;;;;;;5065428;28;20036;-70
2024/01/19 14:09:38;;;;;;;20.50;3.85;;;;;;;;;;5075464;28;20045;-70
2024/01/19 14:12:04;;;;;;;20.65;3.45;;;;;;;;;;5078470;28;20052;-70
2024/01/19 14:14:30;;;;;;;21.48;3.45;;;;;;;;;;5077268;28;20071;-70
2024/01/19 14:16:59;;;;;;;15.90;3.35;;;;;;;;;;5079397;28;20048;-70
2024/01/19 14:19:25;;;;;;;13.65;3.53;;;;;;;;;;5080447;28;20067;-70
2024/01/19 14:21:52;;;;;;;13.52;3.17;;;;;;;;;;5089035;28;20048;-70
2024/01/19 14:24:18;;;;;;;25.25;4.78;;;;;;;;;;5081523;28;20131;-70
2024/01/19 14:26:45;;;;;;;13.15;3.20;;;;;;;;;;5089122;28;20139;-70